| time (UTC) | temp C | wind direction | speed KPH | gust KPH | rain 1hr cm | rain 24hr cm | rain mn cm | humidity % | barometer mb |
| 20260507163901 | 15 | 270 | 3.2 | 9.7 | 0.00 | 0.00 | 0.00 | 54 | |
| 20260507162401 | 16 | 270 | 1.6 | 8.0 | 0.00 | 0.00 | 0.00 | 53 | |
| 20260507160902 | 16 | 247 | 3.2 | 9.7 | 0.00 | 0.00 | 0.00 | 51 | |
| 20260507155402 | 17 | 225 | 4.8 | 17.7 | 0.00 | 0.00 | 0.00 | 50 | |
| 20260507153902 | 17 | 247 | 4.8 | 14.5 | 0.00 | 0.00 | 0.00 | 50 | |
| 20260507152402 | 17 | 247 | 3.2 | 16.1 | 0.00 | 0.00 | 0.00 | 48 | |
| 20260507150902 | 17 | 0 | 6.4 | 16.1 | 0.00 | 0.00 | 0.00 | 51 | |
| 20260507145402 | 16 | 247 | 4.8 | 16.1 | 0.00 | 0.00 | 0.00 | 50 | |
| 20260507143902 | 18 | 247 | 4.8 | 16.1 | 0.00 | 0.00 | 0.00 | 49 | |
| 20260507142402 | 17 | 247 | 4.8 | 17.7 | 0.00 | 0.00 | 0.00 | 52 | |
| 20260507140902 | 18 | 270 | 3.2 | 14.5 | 0.00 | 0.00 | 0.00 | 48 | |
| 20260507135402 | 17 | 0 | 3.2 | 14.5 | 0.00 | 0.00 | 0.00 | 51 | |
| 20260507133902 | 17 | 247 | 4.8 | 17.7 | 0.00 | 0.00 | 0.00 | 53 | |
| 20260507132402 | 18 | 315 | 4.8 | 17.7 | 0.00 | 0.00 | 0.00 | 50 | |
| 20260507130901 | 18 | 247 | 4.8 | 12.9 | 0.00 | 0.00 | 0.00 | 51 | |
| 20260507125401 | 17 | 247 | 4.8 | 16.1 | 0.00 | 0.00 | 0.00 | 51 | |
| 20260507123902 | 18 | 247 | 6.4 | 16.1 | 0.00 | 0.00 | 0.00 | 49 | |
| 20260507122402 | 18 | 247 | 4.8 | 14.5 | 0.00 | 0.00 | 0.00 | 49 | |
| 20260507120903 | 18 | 247 | 4.8 | 22.5 | 0.00 | 0.00 | 0.00 | 52 | |
| 20260507115403 | 18 | 247 | 4.8 | 16.1 | 0.00 | 0.00 | 0.00 | 52 | |
| 20260507113902 | 18 | 247 | 6.4 | 17.7 | 0.00 | 0.00 | 0.00 | 52 | |
| 20260507112404 | 17 | 247 | 3.2 | 11.3 | 0.00 | 0.00 | 0.00 | 54 | |
| 20260507110902 | 17 | 225 | 3.2 | 9.7 | 0.00 | 0.00 | 0.00 | 55 | |
| 20260507105402 | 16 | 0 | 4.8 | 16.1 | 0.00 | 0.00 | 0.00 | 55 | |
| 20260507103901 | 17 | 225 | 6.4 | 16.1 | 0.00 | 0.00 | 0.00 | 55 | |
| 20260507102402 | 17 | 225 | 4.8 | 16.1 | 0.00 | 0.00 | 0.00 | 55 | |
| 20260507100901 | 17 | 225 | 6.4 | 16.1 | 0.00 | 0.00 | 0.00 | 56 | |
| 20260507095402 | 16 | 247 | 4.8 | 17.7 | 0.00 | 0.00 | 0.00 | 59 | |
| 20260507093901 | 16 | 247 | 4.8 | 16.1 | 0.00 | 0.00 | 0.00 | 60 | |
| 20260507092402 | 16 | 247 | 4.8 | 14.5 | 0.00 | 0.00 | 0.00 | 59 | |
| 20260507090902 | 16 | 225 | 6.4 | 14.5 | 0.00 | 0.00 | 0.00 | 59 | |
| 20260507085402 | 16 | 270 | 6.4 | 19.3 | 0.00 | 0.00 | 0.00 | 61 | |
| 20260507082403 | 15 | 247 | 6.4 | 12.9 | 0.00 | 0.00 | 0.00 | 64 | |
| 20260507080904 | 15 | 225 | 6.4 | 16.1 | 0.00 | 0.00 | 0.00 | 62 | |
| 20260507075403 | 15 | 247 | 4.8 | 16.1 | 0.00 | 0.00 | 0.00 | 65 | |
| 20260507073902 | 15 | 247 | 8.0 | 19.3 | 0.00 | 0.00 | 0.00 | 63 | |
| 20260507072402 | 14 | 247 | 8.0 | 24.1 | 0.00 | 0.00 | 0.00 | 66 | |
| 20260507070902 | 13 | 247 | 6.4 | 17.7 | 0.00 | 0.00 | 0.00 | 71 | |
| 20260507065402 | 11 | 247 | 6.4 | 17.7 | 0.00 | 0.00 | 0.00 | 75 | |
| 20260507063907 | 11 | 247 | 4.8 | 12.9 | 0.00 | 0.00 | 0.00 | 75 | |
| 20260507062403 | 11 | 225 | 4.8 | 14.5 | 0.00 | 0.00 | 0.00 | 74 | |
| 20260507060901 | 12 | 247 | 6.4 | 16.1 | 0.00 | 0.00 | 0.00 | 73 | |
| 20260507055401 | 13 | 225 | 6.4 | 11.3 | 0.00 | 0.00 | 0.00 | 75 | |
| 20260507053901 | 11 | 225 | 6.4 | 14.5 | 0.00 | 0.00 | 0.00 | 78 | |
| 20260507052401 | 10 | 247 | 6.4 | 12.9 | 0.00 | 0.00 | 0.00 | 80 | |
| 20260507050901 | 10 | 225 | 4.8 | 11.3 | 0.00 | 0.00 | 0.00 | 81 | |
| 20260507045402 | 10 | 225 | 4.8 | 12.9 | 0.00 | 0.00 | 0.00 | 82 | |
| 20260507043903 | 10 | 247 | 4.8 | 11.3 | 0.00 | 0.00 | 0.00 | 83 | |
| 20260507042403 | 10 | 247 | 3.2 | 11.3 | 0.00 | 0.00 | 0.00 | 84 | |
| 20260507040904 | 9 | 247 | 4.8 | 16.1 | 0.00 | 0.00 | 0.00 | 84 | |
| 20260507035404 | 9 | 247 | 3.2 | 11.3 | 0.00 | 0.00 | 0.00 | 85 | |
| 20260507033902 | 10 | 247 | 4.8 | 12.9 | 0.00 | 0.00 | 0.00 | 85 | |
| 20260507032402 | 10 | 247 | 3.2 | 8.0 | 0.00 | 0.00 | 0.00 | 85 | |
| 20260507030902 | 10 | 247 | 3.2 | 12.9 | 0.00 | 0.00 | 0.00 | 85 | |
| 20260507025402 | 10 | 247 | 1.6 | 8.0 | 0.00 | 0.00 | 0.00 | 85 | |
| 20260507023901 | 10 | 247 | 3.2 | 8.0 | 0.00 | 0.00 | 0.00 | 85 | |
| 20260507022402 | 10 | 247 | 3.2 | 9.7 | 0.00 | 0.00 | 0.00 | 86 | |
| 20260507020903 | 10 | 247 | 4.8 | 11.3 | 0.00 | 0.00 | 0.00 | 86 | |
| 20260507015402 | 10 | 247 | 3.2 | 11.3 | 0.00 | 0.00 | 0.00 | 86 | |
| 20260507013901 | 10 | 247 | 3.2 | 11.3 | 0.00 | 0.00 | 0.00 | 86 | |
| 20260507012401 | 10 | 247 | 4.8 | 11.3 | 0.00 | 0.00 | 0.00 | 86 | |
| 20260507010901 | 11 | 247 | 3.2 | 14.5 | 0.00 | 0.00 | 0.00 | 86 | |
| 20260507005403 | 10 | 247 | 3.2 | 9.7 | 0.00 | 0.00 | 0.00 | 85 | |
| 20260507003903 | 11 | 247 | 3.2 | 4.8 | 0.00 | 0.00 | 0.00 | 85 | |
| 20260507002403 | 11 | 270 | 1.6 | 6.4 | 0.00 | 0.00 | 0.00 | 85 | |
| 20260507000909 | 11 | 247 | 1.6 | 9.7 | 0.00 | 0.00 | 0.00 | 85 | |
| 20260506235402 | 11 | 247 | 3.2 | 11.3 | 0.00 | 0.00 | 0.00 | 85 | |
| 20260506233902 | 11 | 247 | 1.6 | 6.4 | 0.00 | 0.00 | 0.00 | 85 | |
| 20260506232402 | 11 | 247 | 3.2 | 9.7 | 0.00 | 0.00 | 0.00 | 85 | |
| 20260506230901 | 11 | 270 | 4.8 | 16.1 | 0.00 | 0.00 | 0.00 | 85 | |
| 20260506225402 | 11 | 225 | 4.8 | 16.1 | 0.00 | 0.00 | 0.00 | 85 | |
| 20260506223902 | 12 | 247 | 4.8 | 12.9 | 0.00 | 0.00 | 0.00 | 85 | |
| 20260506222403 | 12 | 247 | 4.8 | 12.9 | 0.00 | 0.00 | 0.00 | 84 | |
| 20260506220902 | 12 | 270 | 6.4 | 16.1 | 0.00 | 0.00 | 0.00 | 84 | |
| 20260506215403 | 12 | 225 | 6.4 | 16.1 | 0.00 | 0.00 | 0.00 | 84 | |
| 20260506213903 | 12 | 292 | 4.8 | 17.7 | 0.00 | 0.00 | 0.00 | 83 | |
| 20260506212404 | 12 | 0 | 4.8 | 14.5 | 0.00 | 0.00 | 0.00 | 86 | |
| 20260506210902 | 12 | 0 | 6.4 | 19.3 | 0.00 | 0.00 | 0.00 | 82 | |
| 20260506205404 | 12 | 247 | 4.8 | 16.1 | 0.00 | 0.00 | 0.00 | 81 | |
| 20260506203902 | 13 | 270 | 8.0 | 27.4 | 0.00 | 0.00 | 0.00 | 82 | |
| 20260506202404 | 13 | 247 | 9.7 | 24.1 | 0.00 | 0.00 | 0.00 | 80 | |
| 20260506200902 | 13 | 247 | 9.7 | 24.1 | 0.00 | 0.00 | 0.00 | 78 | |
| 20260506193901 | 14 | 225 | 4.8 | 11.3 | 0.00 | 0.00 | 0.00 | 62 | |
| 20260506192402 | 13 | 225 | 1.6 | 6.4 | 0.00 | 0.00 | 0.00 | 67 | |
| 20260506190902 | 13 | 225 | 0.0 | 1.6 | 0.00 | 0.00 | 0.00 | 68 | |
| 20260506183902 | 15 | 225 | 0.0 | 1.6 | 0.00 | 0.00 | 0.00 | 65 | |
| 20260506182402 | 15 | 225 | 0.0 | 1.6 | 0.00 | 0.00 | 0.00 | 62 | |
| 20260506180902 | 16 | 0 | 0.0 | 1.6 | 0.00 | 0.00 | 0.00 | 61 | |
| 20260506175402 | 16 | 225 | 0.0 | 1.6 | 0.00 | 0.00 | 0.00 | 60 | |
| 20260506173903 | 17 | 112 | 0.0 | 1.6 | 0.00 | 0.00 | 0.00 | 56 | |
| 20260506172402 | 18 | 202 | 0.0 | 0.0 | 0.00 | 0.00 | 0.00 | 55 | |
| 20260506170905 | 19 | 67 | 1.6 | 8.0 | 0.00 | 0.00 | 0.00 | 52 | |
| 20260506165403 | 20 | 45 | 3.2 | 14.5 | 0.00 | 0.00 | 0.00 | 49 |